sensor_id;sensor_type;location;lat;lon;timestamp;P1;durP1;ratioP1;P2;durP2;ratioP2
12181;SDS011;6154;51.550;12.138;2022-12-11T00:00:40;5.65;;;3.72;;
12181;SDS011;6154;51.550;12.138;2022-12-11T00:03:27;8.38;;;4.20;;
12181;SDS011;6154;51.550;12.138;2022-12-11T00:06:16;9.20;;;4.97;;
12181;SDS011;6154;51.550;12.138;2022-12-11T00:09:04;6.87;;;4.55;;
12181;SDS011;6154;51.550;12.138;2022-12-11T00:11:54;5.65;;;3.78;;
12181;SDS011;6154;51.550;12.138;2022-12-11T00:14:41;5.78;;;3.60;;
12181;SDS011;6154;51.550;12.138;2022-12-11T00:17:28;5.87;;;3.67;;
12181;SDS011;6154;51.550;12.138;2022-12-11T00:20:15;5.53;;;3.28;;
12181;SDS011;6154;51.550;12.138;2022-12-11T00:23:04;8.63;;;4.07;;
12181;SDS011;6154;51.550;12.138;2022-12-11T00:25:51;8.13;;;4.10;;
12181;SDS011;6154;51.550;12.138;2022-12-11T00:28:38;5.87;;;3.72;;
12181;SDS011;6154;51.550;12.138;2022-12-11T00:31:26;9.93;;;4.80;;
12181;SDS011;6154;51.550;12.138;2022-12-11T00:34:13;7.90;;;4.78;;
12181;SDS011;6154;51.550;12.138;2022-12-11T00:37:00;8.20;;;4.15;;
12181;SDS011;6154;51.550;12.138;2022-12-11T00:39:48;6.95;;;3.62;;
12181;SDS011;6154;51.550;12.138;2022-12-11T00:42:35;5.12;;;3.60;;
12181;SDS011;6154;51.550;12.138;2022-12-11T00:45:22;6.30;;;3.92;;
12181;SDS011;6154;51.550;12.138;2022-12-11T00:48:09;10.10;;;4.68;;
12181;SDS011;6154;51.550;12.138;2022-12-11T00:50:57;6.68;;;4.18;;
12181;SDS011;6154;51.550;12.138;2022-12-11T00:53:45;4.55;;;3.45;;
12181;SDS011;6154;51.550;12.138;2022-12-11T00:56:33;7.12;;;3.33;;
12181;SDS011;6154;51.550;12.138;2022-12-11T00:59:20;5.62;;;2.78;;
12181;SDS011;6154;51.550;12.138;2022-12-11T01:02:08;4.80;;;2.85;;
12181;SDS011;6154;51.550;12.138;2022-12-11T01:04:56;4.68;;;2.80;;
12181;SDS011;6154;51.550;12.138;2022-12-11T01:07:42;7.15;;;3.90;;
12181;SDS011;6154;51.550;12.138;2022-12-11T01:10:30;5.43;;;3.83;;
12181;SDS011;6154;51.550;12.138;2022-12-11T01:13:19;4.70;;;3.05;;
12181;SDS011;6154;51.550;12.138;2022-12-11T01:16:06;9.55;;;4.15;;
12181;SDS011;6154;51.550;12.138;2022-12-11T01:18:54;8.70;;;4.22;;
12181;SDS011;6154;51.550;12.138;2022-12-11T01:21:43;7.87;;;3.83;;
12181;SDS011;6154;51.550;12.138;2022-12-11T01:24:29;7.87;;;3.80;;
12181;SDS011;6154;51.550;12.138;2022-12-11T01:27:16;5.62;;;3.30;;
12181;SDS011;6154;51.550;12.138;2022-12-11T01:30:06;7.37;;;4.05;;
12181;SDS011;6154;51.550;12.138;2022-12-11T01:32:54;7.00;;;3.75;;
12181;SDS011;6154;51.550;12.138;2022-12-11T01:35:41;7.05;;;3.87;;
12181;SDS011;6154;51.550;12.138;2022-12-11T01:38:28;6.87;;;4.43;;
12181;SDS011;6154;51.550;12.138;2022-12-11T01:41:16;6.90;;;3.60;;
12181;SDS011;6154;51.550;12.138;2022-12-11T01:44:04;8.10;;;4.15;;
12181;SDS011;6154;51.550;12.138;2022-12-11T01:46:54;7.95;;;3.20;;
12181;SDS011;6154;51.550;12.138;2022-12-11T01:49:42;6.75;;;4.03;;
12181;SDS011;6154;51.550;12.138;2022-12-11T01:52:28;9.40;;;4.30;;
12181;SDS011;6154;51.550;12.138;2022-12-11T01:55:16;7.10;;;3.45;;
12181;SDS011;6154;51.550;12.138;2022-12-11T01:58:04;6.82;;;3.85;;
12181;SDS011;6154;51.550;12.138;2022-12-11T02:00:52;5.78;;;3.80;;
12181;SDS011;6154;51.550;12.138;2022-12-11T02:03:43;6.68;;;3.03;;
12181;SDS011;6154;51.550;12.138;2022-12-11T02:06:31;5.18;;;2.97;;
12181;SDS011;6154;51.550;12.138;2022-12-11T02:09:20;5.55;;;3.35;;
12181;SDS011;6154;51.550;12.138;2022-12-11T02:12:11;5.30;;;3.10;;
12181;SDS011;6154;51.550;12.138;2022-12-11T02:15:05;4.47;;;2.80;;
12181;SDS011;6154;51.550;12.138;2022-12-11T02:18:05;5.18;;;2.90;;
12181;SDS011;6154;51.550;12.138;2022-12-11T02:21:02;5.22;;;2.95;;
12181;SDS011;6154;51.550;12.138;2022-12-11T02:24:04;4.05;;;3.35;;
12181;SDS011;6154;51.550;12.138;2022-12-11T02:27:13;4.65;;;2.87;;
12181;SDS011;6154;51.550;12.138;2022-12-11T02:30:12;3.47;;;2.53;;
12181;SDS011;6154;51.550;12.138;2022-12-11T02:33:01;5.78;;;2.90;;
12181;SDS011;6154;51.550;12.138;2022-12-11T02:35:48;5.65;;;3.20;;
12181;SDS011;6154;51.550;12.138;2022-12-11T02:38:36;4.75;;;3.55;;
12181;SDS011;6154;51.550;12.138;2022-12-11T02:41:27;6.50;;;2.92;;
12181;SDS011;6154;51.550;12.138;2022-12-11T02:44:16;5.22;;;3.03;;
12181;SDS011;6154;51.550;12.138;2022-12-11T02:47:10;4.72;;;3.08;;
12181;SDS011;6154;51.550;12.138;2022-12-11T02:50:00;4.10;;;2.78;;
12181;SDS011;6154;51.550;12.138;2022-12-11T02:52:50;6.85;;;3.12;;
12181;SDS011;6154;51.550;12.138;2022-12-11T02:55:41;5.22;;;3.25;;
12181;SDS011;6154;51.550;12.138;2022-12-11T02:58:31;8.98;;;3.10;;
12181;SDS011;6154;51.550;12.138;2022-12-11T03:01:19;2.33;;;1.75;;
12181;SDS011;6154;51.550;12.138;2022-12-11T03:04:08;2.85;;;2.12;;
12181;SDS011;6154;51.550;12.138;2022-12-11T03:06:57;2.35;;;1.67;;
12181;SDS011;6154;51.550;12.138;2022-12-11T03:09:56;4.07;;;2.42;;
12181;SDS011;6154;51.550;12.138;2022-12-11T03:12:44;2.12;;;1.95;;
12181;SDS011;6154;51.550;12.138;2022-12-11T03:15:39;3.95;;;2.15;;
12181;SDS011;6154;51.550;12.138;2022-12-11T03:18:33;4.25;;;2.22;;
12181;SDS011;6154;51.550;12.138;2022-12-11T03:21:26;4.95;;;2.37;;
12181;SDS011;6154;51.550;12.138;2022-12-11T03:24:21;5.78;;;3.15;;
12181;SDS011;6154;51.550;12.138;2022-12-11T03:27:16;7.10;;;2.83;;
12181;SDS011;6154;51.550;12.138;2022-12-11T03:30:09;5.57;;;3.28;;
12181;SDS011;6154;51.550;12.138;2022-12-11T03:33:01;4.43;;;2.80;;
12181;SDS011;6154;51.550;12.138;2022-12-11T03:35:51;4.53;;;2.20;;
12181;SDS011;6154;51.550;12.138;2022-12-11T03:38:45;4.22;;;2.95;;
12181;SDS011;6154;51.550;12.138;2022-12-11T03:41:35;4.65;;;3.05;;
12181;SDS011;6154;51.550;12.138;2022-12-11T03:44:25;4.35;;;2.58;;
12181;SDS011;6154;51.550;12.138;2022-12-11T03:47:14;5.07;;;3.28;;
12181;SDS011;6154;51.550;12.138;2022-12-11T03:50:06;3.08;;;2.10;;
12181;SDS011;6154;51.550;12.138;2022-12-11T03:52:57;4.62;;;2.70;;
12181;SDS011;6154;51.550;12.138;2022-12-11T03:55:47;4.87;;;2.85;;
12181;SDS011;6154;51.550;12.138;2022-12-11T03:58:36;5.85;;;2.70;;
12181;SDS011;6154;51.550;12.138;2022-12-11T04:01:24;3.15;;;2.20;;
12181;SDS011;6154;51.550;12.138;2022-12-11T04:04:11;5.32;;;2.50;;
12181;SDS011;6154;51.550;12.138;2022-12-11T04:06:58;3.42;;;2.00;;
12181;SDS011;6154;51.550;12.138;2022-12-11T04:09:46;3.55;;;2.62;;
12181;SDS011;6154;51.550;12.138;2022-12-11T04:12:34;2.20;;;1.70;;
12181;SDS011;6154;51.550;12.138;2022-12-11T04:15:22;3.37;;;2.80;;
12181;SDS011;6154;51.550;12.138;2022-12-11T04:18:08;1.75;;;1.37;;
12181;SDS011;6154;51.550;12.138;2022-12-11T04:21:14;3.33;;;2.33;;
12181;SDS011;6154;51.550;12.138;2022-12-11T04:24:24;3.25;;;2.80;;
12181;SDS011;6154;51.550;12.138;2022-12-11T04:27:11;2.33;;;2.12;;
12181;SDS011;6154;51.550;12.138;2022-12-11T04:29:59;3.45;;;2.10;;
12181;SDS011;6154;51.550;12.138;2022-12-11T04:32:47;3.35;;;2.22;;
12181;SDS011;6154;51.550;12.138;2022-12-11T04:35:34;3.47;;;1.65;;
12181;SDS011;6154;51.550;12.138;2022-12-11T04:38:22;2.20;;;0.95;;
12181;SDS011;6154;51.550;12.138;2022-12-11T04:41:09;2.30;;;2.00;;
12181;SDS011;6154;51.550;12.138;2022-12-11T04:43:58;3.33;;;2.78;;
12181;SDS011;6154;51.550;12.138;2022-12-11T04:46:46;6.57;;;2.70;;
12181;SDS011;6154;51.550;12.138;2022-12-11T04:49:33;5.05;;;2.83;;
12181;SDS011;6154;51.550;12.138;2022-12-11T04:52:20;4.57;;;3.17;;
12181;SDS011;6154;51.550;12.138;2022-12-11T04:55:08;4.68;;;3.22;;
12181;SDS011;6154;51.550;12.138;2022-12-11T04:57:56;4.80;;;3.25;;
12181;SDS011;6154;51.550;12.138;2022-12-11T05:00:43;4.50;;;2.70;;
12181;SDS011;6154;51.550;12.138;2022-12-11T05:03:32;4.37;;;3.33;;
12181;SDS011;6154;51.550;12.138;2022-12-11T05:06:20;3.65;;;2.60;;
12181;SDS011;6154;51.550;12.138;2022-12-11T05:09:09;3.15;;;2.70;;
12181;SDS011;6154;51.550;12.138;2022-12-11T05:11:57;6.00;;;2.72;;
12181;SDS011;6154;51.550;12.138;2022-12-11T05:14:44;7.28;;;2.60;;
12181;SDS011;6154;51.550;12.138;2022-12-11T05:17:32;5.90;;;3.10;;
12181;SDS011;6154;51.550;12.138;2022-12-11T05:20:20;2.55;;;2.35;;
12181;SDS011;6154;51.550;12.138;2022-12-11T05:23:07;5.72;;;2.40;;
12181;SDS011;6154;51.550;12.138;2022-12-11T05:25:55;5.87;;;2.97;;
12181;SDS011;6154;51.550;12.138;2022-12-11T05:28:44;3.78;;;2.55;;
12181;SDS011;6154;51.550;12.138;2022-12-11T05:31:31;4.07;;;2.65;;
12181;SDS011;6154;51.550;12.138;2022-12-11T05:34:18;3.75;;;2.45;;
12181;SDS011;6154;51.550;12.138;2022-12-11T05:37:06;4.25;;;2.83;;
12181;SDS011;6154;51.550;12.138;2022-12-11T05:39:54;6.12;;;3.10;;
12181;SDS011;6154;51.550;12.138;2022-12-11T05:42:41;5.18;;;2.60;;
12181;SDS011;6154;51.550;12.138;2022-12-11T05:45:28;3.55;;;2.45;;
12181;SDS011;6154;51.550;12.138;2022-12-11T05:48:15;2.67;;;1.90;;
12181;SDS011;6154;51.550;12.138;2022-12-11T05:51:02;4.00;;;2.62;;
12181;SDS011;6154;51.550;12.138;2022-12-11T05:53:52;5.28;;;2.40;;
12181;SDS011;6154;51.550;12.138;2022-12-11T05:56:41;5.25;;;3.30;;
12181;SDS011;6154;51.550;12.138;2022-12-11T05:59:28;6.53;;;2.92;;
12181;SDS011;6154;51.550;12.138;2022-12-11T06:02:15;5.25;;;3.03;;
12181;SDS011;6154;51.550;12.138;2022-12-11T06:05:02;3.97;;;2.47;;
12181;SDS011;6154;51.550;12.138;2022-12-11T06:07:50;4.43;;;2.20;;
12181;SDS011;6154;51.550;12.138;2022-12-11T06:10:39;4.35;;;2.28;;
12181;SDS011;6154;51.550;12.138;2022-12-11T06:13:31;3.00;;;1.80;;
12181;SDS011;6154;51.550;12.138;2022-12-11T06:16:18;5.32;;;2.67;;
12181;SDS011;6154;51.550;12.138;2022-12-11T06:19:06;4.10;;;2.78;;
12181;SDS011;6154;51.550;12.138;2022-12-11T06:21:59;5.00;;;2.62;;
12181;SDS011;6154;51.550;12.138;2022-12-11T06:24:46;5.87;;;2.50;;
12181;SDS011;6154;51.550;12.138;2022-12-11T06:27:35;5.05;;;2.83;;
12181;SDS011;6154;51.550;12.138;2022-12-11T06:30:22;4.97;;;2.40;;
12181;SDS011;6154;51.550;12.138;2022-12-11T06:33:24;4.07;;;2.28;;
12181;SDS011;6154;51.550;12.138;2022-12-11T06:36:11;6.80;;;3.20;;
12181;SDS011;6154;51.550;12.138;2022-12-11T06:39:00;3.58;;;2.40;;
12181;SDS011;6154;51.550;12.138;2022-12-11T06:41:47;5.07;;;2.83;;
12181;SDS011;6154;51.550;12.138;2022-12-11T06:44:35;4.85;;;2.92;;
12181;SDS011;6154;51.550;12.138;2022-12-11T06:47:22;4.70;;;2.75;;
12181;SDS011;6154;51.550;12.138;2022-12-11T06:50:09;5.40;;;3.00;;
12181;SDS011;6154;51.550;12.138;2022-12-11T06:52:57;4.47;;;2.50;;
12181;SDS011;6154;51.550;12.138;2022-12-11T06:55:44;5.07;;;2.80;;
12181;SDS011;6154;51.550;12.138;2022-12-11T06:58:32;4.68;;;2.35;;
12181;SDS011;6154;51.550;12.138;2022-12-11T07:01:22;5.03;;;2.67;;
12181;SDS011;6154;51.550;12.138;2022-12-11T07:04:11;4.93;;;2.90;;
12181;SDS011;6154;51.550;12.138;2022-12-11T07:06:58;5.07;;;2.65;;
12181;SDS011;6154;51.550;12.138;2022-12-11T07:09:45;3.60;;;2.20;;
12181;SDS011;6154;51.550;12.138;2022-12-11T07:12:33;7.18;;;3.15;;
12181;SDS011;6154;51.550;12.138;2022-12-11T07:15:19;7.05;;;3.42;;
12181;SDS011;6154;51.550;12.138;2022-12-11T07:18:08;6.37;;;2.72;;
12181;SDS011;6154;51.550;12.138;2022-12-11T07:20:56;4.75;;;2.72;;
12181;SDS011;6154;51.550;12.138;2022-12-11T07:23:44;4.47;;;2.75;;
12181;SDS011;6154;51.550;12.138;2022-12-11T07:26:32;6.28;;;2.70;;
12181;SDS011;6154;51.550;12.138;2022-12-11T07:29:19;5.53;;;2.87;;
12181;SDS011;6154;51.550;12.138;2022-12-11T07:32:06;6.00;;;2.47;;
12181;SDS011;6154;51.550;12.138;2022-12-11T07:34:55;3.95;;;2.70;;
12181;SDS011;6154;51.550;12.138;2022-12-11T07:37:41;3.45;;;2.72;;
12181;SDS011;6154;51.550;12.138;2022-12-11T07:40:31;4.85;;;3.12;;
12181;SDS011;6154;51.550;12.138;2022-12-11T07:43:20;3.30;;;1.85;;
12181;SDS011;6154;51.550;12.138;2022-12-11T07:46:11;2.53;;;1.33;;
12181;SDS011;6154;51.550;12.138;2022-12-11T07:48:59;3.67;;;1.98;;
12181;SDS011;6154;51.550;12.138;2022-12-11T07:51:49;3.90;;;2.28;;
12181;SDS011;6154;51.550;12.138;2022-12-11T07:54:36;3.70;;;2.40;;
12181;SDS011;6154;51.550;12.138;2022-12-11T07:57:23;4.28;;;2.62;;
12181;SDS011;6154;51.550;12.138;2022-12-11T08:00:11;4.57;;;2.67;;
12181;SDS011;6154;51.550;12.138;2022-12-11T08:02:59;6.37;;;3.05;;
12181;SDS011;6154;51.550;12.138;2022-12-11T08:05:46;4.55;;;2.90;;
12181;SDS011;6154;51.550;12.138;2022-12-11T08:08:36;5.07;;;2.40;;
12181;SDS011;6154;51.550;12.138;2022-12-11T08:11:23;3.90;;;2.08;;
12181;SDS011;6154;51.550;12.138;2022-12-11T08:14:13;5.15;;;2.45;;
12181;SDS011;6154;51.550;12.138;2022-12-11T08:17:00;4.30;;;2.47;;
12181;SDS011;6154;51.550;12.138;2022-12-11T08:19:48;5.30;;;2.75;;
12181;SDS011;6154;51.550;12.138;2022-12-11T08:22:35;5.78;;;2.75;;
12181;SDS011;6154;51.550;12.138;2022-12-11T08:25:23;3.42;;;2.25;;
12181;SDS011;6154;51.550;12.138;2022-12-11T08:28:11;4.47;;;3.08;;
12181;SDS011;6154;51.550;12.138;2022-12-11T08:30:59;3.22;;;1.58;;
12181;SDS011;6154;51.550;12.138;2022-12-11T08:33:49;4.62;;;2.05;;
12181;SDS011;6154;51.550;12.138;2022-12-11T08:36:36;5.47;;;2.05;;
12181;SDS011;6154;51.550;12.138;2022-12-11T08:39:23;5.20;;;2.37;;
12181;SDS011;6154;51.550;12.138;2022-12-11T08:42:12;4.12;;;2.10;;
12181;SDS011;6154;51.550;12.138;2022-12-11T08:44:59;4.35;;;3.03;;
12181;SDS011;6154;51.550;12.138;2022-12-11T08:47:47;5.50;;;3.28;;
12181;SDS011;6154;51.550;12.138;2022-12-11T08:50:35;4.45;;;2.45;;
12181;SDS011;6154;51.550;12.138;2022-12-11T08:53:22;6.05;;;3.22;;
12181;SDS011;6154;51.550;12.138;2022-12-11T08:56:10;5.47;;;3.22;;
12181;SDS011;6154;51.550;12.138;2022-12-11T08:59:00;4.78;;;2.87;;
12181;SDS011;6154;51.550;12.138;2022-12-11T09:01:48;6.55;;;3.08;;
12181;SDS011;6154;51.550;12.138;2022-12-11T09:04:35;4.75;;;2.90;;
12181;SDS011;6154;51.550;12.138;2022-12-11T09:07:22;4.40;;;2.62;;
12181;SDS011;6154;51.550;12.138;2022-12-11T09:10:10;5.30;;;2.83;;
12181;SDS011;6154;51.550;12.138;2022-12-11T09:12:57;4.78;;;2.90;;
12181;SDS011;6154;51.550;12.138;2022-12-11T09:15:46;5.60;;;3.00;;
12181;SDS011;6154;51.550;12.138;2022-12-11T09:18:33;4.90;;;2.40;;
12181;SDS011;6154;51.550;12.138;2022-12-11T09:21:21;6.43;;;2.92;;
12181;SDS011;6154;51.550;12.138;2022-12-11T09:24:09;7.30;;;3.67;;
12181;SDS011;6154;51.550;12.138;2022-12-11T09:26:58;4.87;;;2.75;;
12181;SDS011;6154;51.550;12.138;2022-12-11T09:29:45;5.50;;;3.05;;
12181;SDS011;6154;51.550;12.138;2022-12-11T09:32:34;8.18;;;3.75;;
12181;SDS011;6154;51.550;12.138;2022-12-11T09:35:21;6.37;;;3.17;;
12181;SDS011;6154;51.550;12.138;2022-12-11T09:38:08;6.65;;;3.22;;
12181;SDS011;6154;51.550;12.138;2022-12-11T09:40:54;4.57;;;2.35;;
12181;SDS011;6154;51.550;12.138;2022-12-11T09:43:43;5.60;;;3.37;;
12181;SDS011;6154;51.550;12.138;2022-12-11T09:46:35;4.03;;;2.45;;
12181;SDS011;6154;51.550;12.138;2022-12-11T09:49:27;3.95;;;2.90;;
12181;SDS011;6154;51.550;12.138;2022-12-11T09:52:22;5.30;;;3.42;;
12181;SDS011;6154;51.550;12.138;2022-12-11T09:55:15;7.65;;;3.33;;
12181;SDS011;6154;51.550;12.138;2022-12-11T09:58:05;6.37;;;3.47;;
12181;SDS011;6154;51.550;12.138;2022-12-11T10:01:00;6.22;;;3.42;;
12181;SDS011;6154;51.550;12.138;2022-12-11T10:03:59;4.82;;;2.80;;
12181;SDS011;6154;51.550;12.138;2022-12-11T10:07:00;5.03;;;3.47;;
12181;SDS011;6154;51.550;12.138;2022-12-11T10:09:57;5.00;;;3.25;;
12181;SDS011;6154;51.550;12.138;2022-12-11T10:12:53;5.03;;;2.85;;
12181;SDS011;6154;51.550;12.138;2022-12-11T10:15:49;9.25;;;3.40;;
12181;SDS011;6154;51.550;12.138;2022-12-11T10:18:40;6.70;;;3.55;;
12181;SDS011;6154;51.550;12.138;2022-12-11T10:21:35;8.20;;;3.37;;
12181;SDS011;6154;51.550;12.138;2022-12-11T10:24:28;5.15;;;2.92;;
12181;SDS011;6154;51.550;12.138;2022-12-11T10:27:41;7.97;;;3.37;;
12181;SDS011;6154;51.550;12.138;2022-12-11T10:30:30;5.43;;;3.58;;
12181;SDS011;6154;51.550;12.138;2022-12-11T10:33:25;6.68;;;3.60;;
12181;SDS011;6154;51.550;12.138;2022-12-11T10:36:21;7.85;;;3.75;;
12181;SDS011;6154;51.550;12.138;2022-12-11T10:39:16;10.25;;;3.72;;
12181;SDS011;6154;51.550;12.138;2022-12-11T10:42:09;6.87;;;3.55;;
12181;SDS011;6154;51.550;12.138;2022-12-11T10:45:03;9.93;;;4.57;;
12181;SDS011;6154;51.550;12.138;2022-12-11T10:48:00;7.12;;;4.20;;
12181;SDS011;6154;51.550;12.138;2022-12-11T10:50:57;6.65;;;3.53;;
12181;SDS011;6154;51.550;12.138;2022-12-11T10:53:48;8.30;;;4.15;;
12181;SDS011;6154;51.550;12.138;2022-12-11T10:56:36;6.68;;;3.97;;
12181;SDS011;6154;51.550;12.138;2022-12-11T10:59:27;9.25;;;3.87;;
12181;SDS011;6154;51.550;12.138;2022-12-11T11:02:20;6.97;;;4.85;;
12181;SDS011;6154;51.550;12.138;2022-12-11T11:05:11;6.93;;;3.85;;
12181;SDS011;6154;51.550;12.138;2022-12-11T11:08:10;5.95;;;3.75;;
12181;SDS011;6154;51.550;12.138;2022-12-11T11:10:59;7.18;;;3.78;;
12181;SDS011;6154;51.550;12.138;2022-12-11T11:13:48;6.72;;;3.37;;
12181;SDS011;6154;51.550;12.138;2022-12-11T11:16:37;5.70;;;3.22;;
12181;SDS011;6154;51.550;12.138;2022-12-11T11:19:27;7.90;;;4.50;;
12181;SDS011;6154;51.550;12.138;2022-12-11T11:22:19;5.65;;;4.20;;
12181;SDS011;6154;51.550;12.138;2022-12-11T11:25:14;8.57;;;4.35;;
12181;SDS011;6154;51.550;12.138;2022-12-11T11:28:04;6.75;;;3.00;;
12181;SDS011;6154;51.550;12.138;2022-12-11T11:30:55;8.77;;;4.60;;
12181;SDS011;6154;51.550;12.138;2022-12-11T11:33:53;6.30;;;4.47;;
12181;SDS011;6154;51.550;12.138;2022-12-11T11:36:41;7.78;;;4.07;;
12181;SDS011;6154;51.550;12.138;2022-12-11T11:39:30;8.73;;;4.32;;
12181;SDS011;6154;51.550;12.138;2022-12-11T11:42:24;8.38;;;4.18;;
12181;SDS011;6154;51.550;12.138;2022-12-11T11:45:21;6.97;;;3.83;;
12181;SDS011;6154;51.550;12.138;2022-12-11T11:48:16;6.90;;;3.90;;
12181;SDS011;6154;51.550;12.138;2022-12-11T11:51:15;6.68;;;3.72;;
12181;SDS011;6154;51.550;12.138;2022-12-11T11:54:14;8.38;;;4.00;;
12181;SDS011;6154;51.550;12.138;2022-12-11T11:57:11;8.20;;;4.22;;
12181;SDS011;6154;51.550;12.138;2022-12-11T12:00:04;6.72;;;3.78;;
12181;SDS011;6154;51.550;12.138;2022-12-11T12:02:56;9.07;;;4.40;;
12181;SDS011;6154;51.550;12.138;2022-12-11T12:05:50;9.75;;;4.75;;
12181;SDS011;6154;51.550;12.138;2022-12-11T12:08:43;7.82;;;3.95;;
12181;SDS011;6154;51.550;12.138;2022-12-11T12:11:41;6.82;;;3.87;;
12181;SDS011;6154;51.550;12.138;2022-12-11T12:14:37;6.82;;;4.65;;
12181;SDS011;6154;51.550;12.138;2022-12-11T12:17:39;6.57;;;3.83;;
12181;SDS011;6154;51.550;12.138;2022-12-11T12:20:59;8.20;;;4.43;;
12181;SDS011;6154;51.550;12.138;2022-12-11T12:24:04;6.60;;;4.37;;
12181;SDS011;6154;51.550;12.138;2022-12-11T12:26:59;7.47;;;3.97;;
12181;SDS011;6154;51.550;12.138;2022-12-11T12:30:10;7.78;;;4.22;;
12181;SDS011;6154;51.550;12.138;2022-12-11T12:33:12;8.85;;;4.40;;
12181;SDS011;6154;51.550;12.138;2022-12-11T12:36:10;7.78;;;4.55;;
12181;SDS011;6154;51.550;12.138;2022-12-11T12:39:06;5.85;;;3.75;;
12181;SDS011;6154;51.550;12.138;2022-12-11T12:42:05;6.28;;;3.87;;
12181;SDS011;6154;51.550;12.138;2022-12-11T12:45:00;7.97;;;4.35;;
12181;SDS011;6154;51.550;12.138;2022-12-11T12:48:01;7.62;;;3.78;;
12181;SDS011;6154;51.550;12.138;2022-12-11T12:50:48;7.40;;;4.75;;
12181;SDS011;6154;51.550;12.138;2022-12-11T12:53:37;9.75;;;5.05;;
12181;SDS011;6154;51.550;12.138;2022-12-11T12:56:26;6.37;;;3.78;;
12181;SDS011;6154;51.550;12.138;2022-12-11T12:59:19;8.23;;;4.05;;
12181;SDS011;6154;51.550;12.138;2022-12-11T13:02:11;8.00;;;4.57;;
12181;SDS011;6154;51.550;12.138;2022-12-11T13:05:03;5.85;;;3.80;;
12181;SDS011;6154;51.550;12.138;2022-12-11T13:08:05;7.43;;;4.53;;
12181;SDS011;6154;51.550;12.138;2022-12-11T13:10:57;7.70;;;3.75;;
12181;SDS011;6154;51.550;12.138;2022-12-11T13:13:48;7.03;;;3.62;;
12181;SDS011;6154;51.550;12.138;2022-12-11T13:16:49;5.75;;;3.08;;
12181;SDS011;6154;51.550;12.138;2022-12-11T13:19:37;7.82;;;4.18;;
12181;SDS011;6154;51.550;12.138;2022-12-11T13:22:27;10.63;;;5.57;;
12181;SDS011;6154;51.550;12.138;2022-12-11T13:25:19;10.15;;;4.07;;
12181;SDS011;6154;51.550;12.138;2022-12-11T13:28:18;6.07;;;4.03;;
12181;SDS011;6154;51.550;12.138;2022-12-11T13:31:30;6.12;;;3.65;;
12181;SDS011;6154;51.550;12.138;2022-12-11T13:34:21;9.05;;;4.15;;
12181;SDS011;6154;51.550;12.138;2022-12-11T13:37:17;8.18;;;3.83;;
12181;SDS011;6154;51.550;12.138;2022-12-11T13:40:14;7.75;;;3.20;;
12181;SDS011;6154;51.550;12.138;2022-12-11T13:43:05;6.82;;;3.87;;
12181;SDS011;6154;51.550;12.138;2022-12-11T13:46:02;8.82;;;3.95;;
12181;SDS011;6154;51.550;12.138;2022-12-11T13:48:52;6.87;;;4.03;;
12181;SDS011;6154;51.550;12.138;2022-12-11T13:51:49;6.37;;;4.07;;
12181;SDS011;6154;51.550;12.138;2022-12-11T13:54:45;4.82;;;3.70;;
12181;SDS011;6154;51.550;12.138;2022-12-11T13:57:34;5.75;;;3.15;;
12181;SDS011;6154;51.550;12.138;2022-12-11T14:00:31;8.00;;;4.32;;
12181;SDS011;6154;51.550;12.138;2022-12-11T14:03:18;6.28;;;4.10;;
12181;SDS011;6154;51.550;12.138;2022-12-11T14:06:09;7.10;;;3.92;;
12181;SDS011;6154;51.550;12.138;2022-12-11T14:09:03;6.97;;;3.37;;
12181;SDS011;6154;51.550;12.138;2022-12-11T14:11:52;6.60;;;4.03;;
12181;SDS011;6154;51.550;12.138;2022-12-11T14:14:44;7.78;;;4.32;;
12181;SDS011;6154;51.550;12.138;2022-12-11T14:17:35;8.02;;;3.78;;
12181;SDS011;6154;51.550;12.138;2022-12-11T14:20:23;5.87;;;3.12;;
12181;SDS011;6154;51.550;12.138;2022-12-11T14:23:16;6.47;;;4.25;;
12181;SDS011;6154;51.550;12.138;2022-12-11T14:26:14;8.90;;;4.20;;
12181;SDS011;6154;51.550;12.138;2022-12-11T14:29:03;6.87;;;3.92;;
12181;SDS011;6154;51.550;12.138;2022-12-11T14:31:50;6.25;;;2.95;;
12181;SDS011;6154;51.550;12.138;2022-12-11T14:34:38;5.57;;;3.53;;
12181;SDS011;6154;51.550;12.138;2022-12-11T14:37:28;7.82;;;4.30;;
12181;SDS011;6154;51.550;12.138;2022-12-11T14:40:19;7.60;;;3.45;;
12181;SDS011;6154;51.550;12.138;2022-12-11T14:43:10;4.85;;;3.28;;
12181;SDS011;6154;51.550;12.138;2022-12-11T14:46:03;4.60;;;3.15;;
12181;SDS011;6154;51.550;12.138;2022-12-11T14:48:56;7.12;;;4.15;;
12181;SDS011;6154;51.550;12.138;2022-12-11T14:51:47;7.43;;;3.78;;
12181;SDS011;6154;51.550;12.138;2022-12-11T14:54:36;5.60;;;3.92;;
12181;SDS011;6154;51.550;12.138;2022-12-11T14:57:36;5.85;;;3.28;;
12181;SDS011;6154;51.550;12.138;2022-12-11T15:00:29;5.82;;;3.72;;
12181;SDS011;6154;51.550;12.138;2022-12-11T15:03:20;6.30;;;2.90;;
12181;SDS011;6154;51.550;12.138;2022-12-11T15:06:20;8.63;;;4.12;;
12181;SDS011;6154;51.550;12.138;2022-12-11T15:09:20;9.95;;;4.65;;
12181;SDS011;6154;51.550;12.138;2022-12-11T15:12:13;6.70;;;3.67;;
12181;SDS011;6154;51.550;12.138;2022-12-11T15:15:04;8.43;;;3.75;;
12181;SDS011;6154;51.550;12.138;2022-12-11T15:17:53;10.82;;;4.55;;
12181;SDS011;6154;51.550;12.138;2022-12-11T15:20:40;9.50;;;3.80;;
12181;SDS011;6154;51.550;12.138;2022-12-11T15:23:28;7.20;;;4.07;;
12181;SDS011;6154;51.550;12.138;2022-12-11T15:26:15;6.85;;;4.00;;
12181;SDS011;6154;51.550;12.138;2022-12-11T15:29:03;6.47;;;3.80;;
12181;SDS011;6154;51.550;12.138;2022-12-11T15:32:01;8.25;;;4.10;;
12181;SDS011;6154;51.550;12.138;2022-12-11T15:34:54;7.93;;;4.05;;
12181;SDS011;6154;51.550;12.138;2022-12-11T15:37:50;8.43;;;3.75;;
12181;SDS011;6154;51.550;12.138;2022-12-11T15:40:38;8.70;;;4.60;;
12181;SDS011;6154;51.550;12.138;2022-12-11T15:43:25;7.05;;;3.80;;
12181;SDS011;6154;51.550;12.138;2022-12-11T15:46:13;10.43;;;4.95;;
12181;SDS011;6154;51.550;12.138;2022-12-11T15:49:04;9.90;;;4.72;;
12181;SDS011;6154;51.550;12.138;2022-12-11T15:51:57;11.73;;;4.97;;
12181;SDS011;6154;51.550;12.138;2022-12-11T15:54:44;9.07;;;4.35;;
12181;SDS011;6154;51.550;12.138;2022-12-11T15:57:31;7.45;;;4.50;;
12181;SDS011;6154;51.550;12.138;2022-12-11T16:00:18;9.15;;;4.60;;
12181;SDS011;6154;51.550;12.138;2022-12-11T16:03:08;7.85;;;3.70;;
12181;SDS011;6154;51.550;12.138;2022-12-11T16:05:58;6.90;;;3.87;;
12181;SDS011;6154;51.550;12.138;2022-12-11T16:08:45;9.90;;;4.37;;
12181;SDS011;6154;51.550;12.138;2022-12-11T16:11:32;7.57;;;4.10;;
12181;SDS011;6154;51.550;12.138;2022-12-11T16:14:19;10.75;;;5.65;;
12181;SDS011;6154;51.550;12.138;2022-12-11T16:17:09;11.32;;;6.07;;
12181;SDS011;6154;51.550;12.138;2022-12-11T16:19:57;9.05;;;3.80;;
12181;SDS011;6154;51.550;12.138;2022-12-11T16:22:45;11.70;;;5.35;;
12181;SDS011;6154;51.550;12.138;2022-12-11T16:25:32;7.40;;;4.35;;
12181;SDS011;6154;51.550;12.138;2022-12-11T16:28:22;8.30;;;3.95;;
12181;SDS011;6154;51.550;12.138;2022-12-11T16:31:09;10.00;;;4.12;;
12181;SDS011;6154;51.550;12.138;2022-12-11T16:33:57;11.32;;;4.97;;
12181;SDS011;6154;51.550;12.138;2022-12-11T16:36:44;8.00;;;4.35;;
12181;SDS011;6154;51.550;12.138;2022-12-11T16:39:33;11.05;;;4.82;;
12181;SDS011;6154;51.550;12.138;2022-12-11T16:42:22;7.93;;;3.75;;
12181;SDS011;6154;51.550;12.138;2022-12-11T16:45:10;8.98;;;5.45;;
12181;SDS011;6154;51.550;12.138;2022-12-11T16:48:01;6.15;;;3.90;;
12181;SDS011;6154;51.550;12.138;2022-12-11T16:50:51;8.27;;;3.67;;
12181;SDS011;6154;51.550;12.138;2022-12-11T16:53:39;10.30;;;4.05;;
12181;SDS011;6154;51.550;12.138;2022-12-11T16:56:28;9.13;;;4.53;;
12181;SDS011;6154;51.550;12.138;2022-12-11T16:59:15;8.55;;;5.10;;
12181;SDS011;6154;51.550;12.138;2022-12-11T17:02:02;8.90;;;4.85;;
12181;SDS011;6154;51.550;12.138;2022-12-11T17:04:49;6.97;;;4.10;;
12181;SDS011;6154;51.550;12.138;2022-12-11T17:07:38;12.82;;;5.43;;